createdAt,value
2023-05-08T00:00:59.793Z,6.68
2023-05-08T00:03:27.091Z,6.72
2023-05-08T00:05:55.412Z,7.50
2023-05-08T00:08:21.800Z,7.50
2023-05-08T00:10:48.276Z,7.57
2023-05-08T00:13:14.776Z,7.25
2023-05-08T00:15:41.276Z,6.65
2023-05-08T00:18:07.760Z,6.63
2023-05-08T00:20:34.443Z,7.90
2023-05-08T00:23:01.002Z,8.23
2023-05-08T00:25:27.847Z,9.07
2023-05-08T00:27:54.254Z,8.77
2023-05-08T00:30:21.279Z,9.10
2023-05-08T00:32:47.780Z,10.20
2023-05-08T00:35:14.402Z,9.75
2023-05-08T00:37:41.273Z,9.10
2023-05-08T00:40:11.888Z,8.75
2023-05-08T00:42:38.494Z,9.73
2023-05-08T00:45:05.329Z,8.00
2023-05-08T00:47:32.555Z,7.68
2023-05-08T00:50:00.948Z,6.90
2023-05-08T00:52:32.946Z,7.60
2023-05-08T00:57:26.818Z,6.03
2023-05-08T00:59:55.488Z,6.10
2023-05-08T01:02:22.213Z,6.65
2023-05-08T01:04:49.195Z,7.18
2023-05-08T01:07:17.819Z,8.07
2023-05-08T01:09:44.202Z,7.75
2023-05-08T01:12:16.269Z,8.32
2023-05-08T01:17:28.078Z,8.30
2023-05-08T01:20:09.763Z,7.78
2023-05-08T01:23:08.037Z,7.65
2023-05-08T01:25:44.124Z,7.55
2023-05-08T01:28:38.176Z,8.32
2023-05-08T01:31:16.741Z,8.30
2023-05-08T01:34:04.956Z,7.93
2023-05-08T01:36:46.191Z,7.68
2023-05-08T01:39:24.592Z,8.93
2023-05-08T01:42:00.696Z,8.15
2023-05-08T01:44:34.221Z,9.88
2023-05-08T01:47:06.765Z,8.88
2023-05-08T01:49:38.909Z,9.00
2023-05-08T01:52:18.156Z,8.60
2023-05-08T01:54:55.614Z,7.55
2023-05-08T01:57:26.686Z,7.53
2023-05-08T01:59:55.972Z,7.93
2023-05-08T02:02:23.267Z,7.95
2023-05-08T02:04:51.741Z,6.97
2023-05-08T02:07:22.201Z,8.10
2023-05-08T02:09:48.740Z,8.63
2023-05-08T02:12:17.260Z,8.82
2023-05-08T02:14:45.806Z,8.63
2023-05-08T02:17:16.150Z,9.32
2023-05-08T02:19:44.436Z,9.05
2023-05-08T02:22:11.943Z,7.93
2023-05-08T02:24:38.716Z,9.43
2023-05-08T02:27:07.573Z,8.40
2023-05-08T02:29:35.004Z,9.38
2023-05-08T02:32:03.079Z,8.60
2023-05-08T02:34:30.824Z,9.95
2023-05-08T02:36:58.964Z,9.20
2023-05-08T02:39:30.328Z,9.15
2023-05-08T02:41:57.263Z,8.07
2023-05-08T02:44:23.787Z,8.52
2023-05-08T02:47:00.790Z,9.88
2023-05-08T02:49:30.115Z,8.55
2023-05-08T02:52:13.741Z,9.27
2023-05-08T02:54:46.942Z,7.68
2023-05-08T02:57:31.935Z,7.93
2023-05-08T03:00:07.687Z,7.82
2023-05-08T03:02:39.999Z,7.25
2023-05-08T03:05:19.143Z,8.50
2023-05-08T03:07:50.180Z,7.68
2023-05-08T03:10:19.143Z,7.55
2023-05-08T03:12:49.662Z,9.13
2023-05-08T03:15:34.952Z,6.90
2023-05-08T03:18:07.924Z,8.00
2023-05-08T03:20:38.803Z,7.63
2023-05-08T03:23:08.229Z,6.95
2023-05-08T03:25:38.468Z,7.10
2023-05-08T03:28:06.096Z,7.30
2023-05-08T03:30:40.194Z,7.15
2023-05-08T03:33:08.038Z,7.90
2023-05-08T03:35:39.084Z,7.32
2023-05-08T03:38:06.685Z,7.00
2023-05-08T03:40:38.754Z,7.45
2023-05-08T03:45:39.379Z,6.22
2023-05-08T03:48:07.323Z,6.68
2023-05-08T03:50:37.846Z,7.53
2023-05-08T03:53:04.889Z,8.18
2023-05-08T03:55:32.142Z,7.53
2023-05-08T03:58:10.526Z,7.95
2023-05-08T04:00:49.160Z,7.63
2023-05-08T04:03:41.386Z,8.02
2023-05-08T04:06:22.899Z,6.57
2023-05-08T04:08:58.373Z,7.32
2023-05-08T04:11:41.291Z,7.88
2023-05-08T04:14:13.414Z,7.78
2023-05-08T04:19:18.051Z,6.53
2023-05-08T04:21:44.920Z,7.03
2023-05-08T04:24:14.699Z,6.72
2023-05-08T04:26:42.396Z,7.65
2023-05-08T04:29:09.609Z,6.15
2023-05-08T04:31:37.210Z,7.50
2023-05-08T04:34:04.506Z,6.57
2023-05-08T04:36:31.689Z,8.52
2023-05-08T04:38:59.166Z,7.78
2023-05-08T04:41:26.287Z,7.15
2023-05-08T04:43:54.342Z,7.50
2023-05-08T04:46:20.920Z,7.32
2023-05-08T04:48:47.457Z,6.57
2023-05-08T04:51:13.892Z,6.68
2023-05-08T04:53:40.386Z,7.70
2023-05-08T04:56:06.966Z,7.95
2023-05-08T04:58:33.344Z,7.40
2023-05-08T05:01:03.844Z,6.90
2023-05-08T05:03:30.766Z,6.97
2023-05-08T05:05:58.948Z,6.18
2023-05-08T05:08:25.565Z,5.32
2023-05-08T05:10:52.365Z,6.35
2023-05-08T05:13:19.767Z,5.45
2023-05-08T05:15:46.343Z,5.68
2023-05-08T05:18:12.905Z,6.15
2023-05-08T05:20:39.398Z,5.35
2023-05-08T05:23:05.848Z,6.00
2023-05-08T05:25:32.175Z,5.40
2023-05-08T05:27:58.529Z,5.88
2023-05-08T05:30:24.927Z,5.57
2023-05-08T05:32:51.414Z,5.75
2023-05-08T05:35:17.861Z,5.80
2023-05-08T05:37:44.216Z,5.95
2023-05-08T05:40:13.111Z,5.82
2023-05-08T05:42:39.478Z,5.90
2023-05-08T05:45:06.459Z,5.70
2023-05-08T05:47:32.791Z,5.72
2023-05-08T05:49:59.157Z,6.93
2023-05-08T05:52:25.635Z,7.03
2023-05-08T05:54:52.019Z,6.55
2023-05-08T05:57:18.381Z,8.10
2023-05-08T05:59:45.143Z,8.13
2023-05-08T06:02:18.578Z,7.78
2023-05-08T06:04:45.316Z,9.05
2023-05-08T06:07:11.719Z,8.48
2023-05-08T06:09:38.327Z,9.65
2023-05-08T06:12:04.772Z,8.77
2023-05-08T06:14:31.248Z,9.43
2023-05-08T06:16:58.447Z,8.60
2023-05-08T06:19:24.811Z,9.82
2023-05-08T06:21:52.098Z,9.88
2023-05-08T06:24:18.500Z,10.15
2023-05-08T06:26:45.330Z,9.57
2023-05-08T06:29:11.711Z,9.20
2023-05-08T06:31:38.200Z,10.38
2023-05-08T06:34:04.723Z,11.27
2023-05-08T06:36:31.702Z,9.73
2023-05-08T06:38:58.099Z,9.88
2023-05-08T06:41:24.537Z,10.55
2023-05-08T06:43:51.070Z,12.07
2023-05-08T06:46:18.019Z,11.32
2023-05-08T06:48:44.428Z,11.13
2023-05-08T06:51:10.739Z,13.00
2023-05-08T06:53:37.156Z,13.77
2023-05-08T06:56:03.597Z,13.35
2023-05-08T06:58:32.084Z,13.13
2023-05-08T07:01:04.121Z,12.77
2023-05-08T07:03:30.453Z,12.10
2023-05-08T07:05:56.864Z,12.57
2023-05-08T07:08:23.257Z,12.20
2023-05-08T07:10:49.671Z,12.35
2023-05-08T07:13:19.934Z,13.32
2023-05-08T07:15:46.497Z,12.85
2023-05-08T07:18:12.916Z,12.80
2023-05-08T07:20:39.429Z,15.38
2023-05-08T07:23:07.018Z,16.10
2023-05-08T07:25:33.353Z,16.08
2023-05-08T07:28:01.313Z,14.07
2023-05-08T07:30:28.062Z,14.52
2023-05-08T07:32:54.455Z,16.33
2023-05-08T07:35:20.841Z,16.40
2023-05-08T07:37:47.334Z,15.73
2023-05-08T07:40:13.725Z,17.35
2023-05-08T07:42:41.449Z,15.85
2023-05-08T07:45:12.575Z,15.85
2023-05-08T07:47:48.579Z,15.45
2023-05-08T07:50:15.119Z,16.75
2023-05-08T07:52:41.499Z,15.73
2023-05-08T07:55:08.490Z,17.60
2023-05-08T07:57:38.890Z,16.45
2023-05-08T08:00:07.148Z,17.83
2023-05-08T08:02:33.711Z,18.65
2023-05-08T08:05:00.245Z,17.63
2023-05-08T08:07:27.177Z,18.42
2023-05-08T08:09:53.642Z,17.20
2023-05-08T08:12:20.784Z,17.70
2023-05-08T08:14:47.143Z,18.75
2023-05-08T08:17:13.535Z,17.90
2023-05-08T08:19:40.276Z,17.83
2023-05-08T08:22:06.658Z,16.35
2023-05-08T08:24:33.108Z,17.42
2023-05-08T08:26:59.489Z,16.50
2023-05-08T08:29:25.970Z,16.20
2023-05-08T08:31:52.390Z,17.27
2023-05-08T08:34:18.801Z,16.40
2023-05-08T08:36:45.224Z,16.48
2023-05-08T08:39:13.432Z,17.65
2023-05-08T08:41:41.140Z,15.30
2023-05-08T08:44:07.581Z,16.30
2023-05-08T08:46:38.275Z,15.75
2023-05-08T08:49:08.197Z,14.98
2023-05-08T08:51:45.970Z,15.40
2023-05-08T08:56:44.622Z,15.02
2023-05-08T08:59:16.508Z,13.75
2023-05-08T09:01:48.017Z,15.35
2023-05-08T09:04:16.316Z,15.82
2023-05-08T09:06:42.983Z,16.33
2023-05-08T09:09:12.278Z,14.52
2023-05-08T09:11:40.393Z,15.30
2023-05-08T09:14:07.089Z,13.73
2023-05-08T09:16:33.476Z,13.27
2023-05-08T09:19:00.485Z,14.32
2023-05-08T09:21:27.758Z,12.80
2023-05-08T09:24:01.356Z,13.27
2023-05-08T09:26:27.703Z,14.52
2023-05-08T09:29:23.776Z,15.27
2023-05-08T09:31:52.701Z,13.52
2023-05-08T09:34:30.301Z,14.25
2023-05-08T09:37:13.873Z,14.63
2023-05-08T09:39:41.988Z,15.40
2023-05-08T09:42:08.334Z,13.90
2023-05-08T09:45:01.136Z,14.23
2023-05-08T09:47:27.572Z,13.90
2023-05-08T09:50:02.091Z,13.48
2023-05-08T09:52:29.668Z,14.13
2023-05-08T09:55:01.769Z,16.15
2023-05-08T09:57:29.451Z,16.67
2023-05-08T10:00:11.883Z,15.45
2023-05-08T10:02:53.739Z,15.45
2023-05-08T10:05:25.294Z,17.27
2023-05-08T10:10:33.562Z,16.42
2023-05-08T10:13:00.095Z,19.33
2023-05-08T10:15:29.964Z,20.92
2023-05-08T10:17:56.379Z,21.33
2023-05-08T10:20:27.437Z,22.90
2023-05-08T10:22:57.250Z,24.75
2023-05-08T10:25:24.712Z,25.38
2023-05-08T10:28:06.355Z,26.98
2023-05-08T10:30:38.150Z,25.95
2023-05-08T10:33:09.476Z,24.98
2023-05-08T10:35:37.610Z,25.17
2023-05-08T10:38:05.194Z,25.70
2023-05-08T10:40:31.642Z,25.95
2023-05-08T10:42:59.273Z,24.90
2023-05-08T10:45:26.755Z,27.38
2023-05-08T10:48:08.472Z,29.58
2023-05-08T10:50:44.571Z,25.30
2023-05-08T10:53:11.138Z,27.20
2023-05-08T10:55:38.860Z,27.85
2023-05-08T10:58:08.362Z,28.17
2023-05-08T11:01:07.863Z,25.90
2023-05-08T11:03:44.992Z,25.52
2023-05-08T11:06:11.944Z,27.67
2023-05-08T11:09:04.759Z,28.90
2023-05-08T11:11:33.726Z,28.55
2023-05-08T11:14:12.021Z,29.02
2023-05-08T11:16:53.778Z,29.60
2023-05-08T11:19:22.312Z,28.88
2023-05-08T11:22:13.557Z,30.77
2023-05-08T11:24:46.703Z,31.58
2023-05-08T11:27:13.171Z,31.70
2023-05-08T11:29:39.909Z,30.95
2023-05-08T11:32:06.487Z,32.97
2023-05-08T11:34:45.846Z,34.33
2023-05-08T11:37:17.915Z,32.55
2023-05-08T11:39:44.542Z,32.30
2023-05-08T11:42:29.120Z,33.35
2023-05-08T11:45:09.750Z,30.88
2023-05-08T11:47:44.434Z,31.33
2023-05-08T11:50:13.277Z,29.55
2023-05-08T11:52:41.585Z,29.95
2023-05-08T11:55:12.820Z,32.17
2023-05-08T11:57:39.359Z,31.13
2023-05-08T12:00:10.671Z,31.23
2023-05-08T12:02:42.454Z,28.50
2023-05-08T12:05:10.671Z,30.50
2023-05-08T12:07:45.112Z,30.40
2023-05-08T12:10:11.966Z,29.25
2023-05-08T12:12:40.598Z,28.92
2023-05-08T12:15:12.303Z,28.85
2023-05-08T12:17:39.297Z,28.10
2023-05-08T12:20:13.513Z,28.13
2023-05-08T12:22:50.907Z,28.27
2023-05-08T12:25:17.893Z,27.65
2023-05-08T12:27:44.893Z,29.13
2023-05-08T12:30:13.998Z,27.42
2023-05-08T12:32:41.866Z,25.92
2023-05-08T12:35:09.943Z,25.55
2023-05-08T12:37:36.731Z,25.85
2023-05-08T12:40:04.628Z,24.52
2023-05-08T12:42:48.278Z,23.45
2023-05-08T12:45:22.284Z,23.45
2023-05-08T12:47:53.457Z,25.45
2023-05-08T12:50:22.297Z,24.33
2023-05-08T12:52:51.391Z,23.95
2023-05-08T12:55:23.786Z,23.02
2023-05-08T12:57:58.646Z,22.85
2023-05-08T13:00:25.207Z,24.23
2023-05-08T13:02:56.014Z,23.90
2023-05-08T13:05:23.562Z,22.83
2023-05-08T13:07:51.487Z,22.50
2023-05-08T13:10:23.959Z,22.98
2023-05-08T13:12:52.226Z,22.63
2023-05-08T13:15:18.798Z,22.67
2023-05-08T13:17:45.263Z,20.48
2023-05-08T13:20:12.024Z,21.38
2023-05-08T13:22:38.539Z,20.95
2023-05-08T13:25:05.804Z,20.88
2023-05-08T13:27:32.205Z,20.35
2023-05-08T13:29:58.627Z,19.95
2023-05-08T13:32:25.030Z,19.02
2023-05-08T13:34:53.103Z,21.05
2023-05-08T13:37:22.914Z,20.63
2023-05-08T13:39:49.266Z,20.95
2023-05-08T13:42:15.720Z,21.92
2023-05-08T13:44:42.120Z,21.08
2023-05-08T13:47:09.991Z,20.80
2023-05-08T13:49:36.328Z,22.02
2023-05-08T13:52:02.884Z,21.23
2023-05-08T13:54:29.416Z,20.92
2023-05-08T13:56:55.916Z,20.30
2023-05-08T13:59:22.307Z,20.40
2023-05-08T14:01:48.674Z,20.17
2023-05-08T14:04:15.335Z,22.13
2023-05-08T14:06:41.792Z,18.50
2023-05-08T14:09:08.197Z,18.95
2023-05-08T14:11:34.532Z,20.52
2023-05-08T14:14:00.972Z,20.55
2023-05-08T14:16:28.400Z,20.33
2023-05-08T14:18:54.882Z,19.40
2023-05-08T14:21:21.269Z,18.95
2023-05-08T14:23:47.662Z,18.55
2023-05-08T14:26:14.029Z,18.60
2023-05-08T14:28:40.541Z,19.38
2023-05-08T14:31:06.987Z,18.63
2023-05-08T14:33:33.456Z,18.52
2023-05-08T14:35:59.862Z,18.10
2023-05-08T14:38:26.293Z,18.92
2023-05-08T14:40:54.357Z,19.05
2023-05-08T14:43:21.553Z,18.77
2023-05-08T14:45:48.289Z,18.63
2023-05-08T14:48:14.920Z,18.58
2023-05-08T14:50:41.617Z,17.98
2023-05-08T14:53:08.322Z,18.60
2023-05-08T14:55:34.959Z,18.17
2023-05-08T14:58:01.484Z,17.50
2023-05-08T15:00:27.879Z,18.67
2023-05-08T15:02:54.427Z,17.58
2023-05-08T15:05:21.106Z,18.25
2023-05-08T15:07:49.494Z,18.45
2023-05-08T15:10:16.091Z,17.27
2023-05-08T15:12:42.553Z,16.98
2023-05-08T15:15:09.257Z,17.38
2023-05-08T15:17:36.488Z,18.90
2023-05-08T15:20:03.816Z,19.45
2023-05-08T15:22:30.350Z,19.38
2023-05-08T15:25:02.130Z,18.77
2023-05-08T15:27:31.963Z,18.40
2023-05-08T15:29:58.557Z,18.42
2023-05-08T15:32:25.066Z,18.42
2023-05-08T15:34:51.551Z,17.52
2023-05-08T15:37:17.935Z,18.25
2023-05-08T15:39:44.334Z,18.33
2023-05-08T15:42:10.711Z,18.83
2023-05-08T15:44:53.990Z,18.65
2023-05-08T15:47:23.102Z,18.25
2023-05-08T15:49:53.195Z,17.48
2023-05-08T15:52:19.881Z,18.23
2023-05-08T15:54:47.291Z,17.83
2023-05-08T15:57:13.824Z,18.02
2023-05-08T15:59:40.344Z,18.33
2023-05-08T16:02:06.781Z,18.83
2023-05-08T16:04:33.153Z,16.92
2023-05-08T16:06:59.993Z,18.73
2023-05-08T16:09:26.562Z,18.63
2023-05-08T16:11:52.992Z,18.90
2023-05-08T16:14:20.106Z,19.42
2023-05-08T16:16:46.583Z,19.13
2023-05-08T16:19:12.941Z,19.48
2023-05-08T16:21:39.409Z,19.95
2023-05-08T16:24:06.074Z,20.08
2023-05-08T16:26:32.429Z,18.45
2023-05-08T16:28:58.834Z,20.92
2023-05-08T16:31:25.216Z,21.08
2023-05-08T16:33:51.632Z,19.77
2023-05-08T16:36:17.956Z,21.73
2023-05-08T16:38:44.299Z,21.55
2023-05-08T16:41:11.245Z,21.70
2023-05-08T16:43:37.623Z,22.08
2023-05-08T16:46:06.503Z,22.98
2023-05-08T16:48:33.451Z,22.98
2023-05-08T16:50:59.909Z,22.30
2023-05-08T16:53:27.232Z,24.50
2023-05-08T16:55:54.534Z,27.08
2023-05-08T16:58:22.837Z,27.55
2023-05-08T17:00:49.417Z,27.85
2023-05-08T17:03:15.978Z,30.10
2023-05-08T17:05:42.459Z,29.50
2023-05-08T17:08:08.810Z,29.70
2023-05-08T17:10:35.716Z,28.20
2023-05-08T17:13:02.123Z,30.60
2023-05-08T17:15:28.968Z,31.60
2023-05-08T17:17:55.999Z,33.72
2023-05-08T17:20:22.401Z,31.30
2023-05-08T17:22:48.847Z,32.75
2023-05-08T17:25:15.309Z,31.77
2023-05-08T17:27:41.707Z,33.63
2023-05-08T17:30:11.891Z,31.60
2023-05-08T17:32:38.735Z,32.78
2023-05-08T17:35:05.807Z,33.90
2023-05-08T17:37:32.214Z,32.83
2023-05-08T17:39:58.568Z,30.65
2023-05-08T17:42:24.980Z,33.17
2023-05-08T17:44:51.312Z,31.73
2023-05-08T17:47:17.698Z,31.58
2023-05-08T17:49:44.101Z,30.75
2023-05-08T17:52:10.526Z,27.67
2023-05-08T17:54:36.872Z,29.63
2023-05-08T17:57:03.300Z,28.25
2023-05-08T17:59:29.676Z,28.30
2023-05-08T18:01:56.083Z,28.27
2023-05-08T18:04:22.848Z,29.08
2023-05-08T18:06:51.498Z,29.55
2023-05-08T18:09:17.840Z,27.13
2023-05-08T18:11:44.383Z,28.05
2023-05-08T18:14:10.907Z,26.70
2023-05-08T18:16:37.329Z,25.80
2023-05-08T18:19:03.797Z,26.00
2023-05-08T18:21:31.519Z,26.85
2023-05-08T18:23:57.942Z,26.00
2023-05-08T18:26:24.391Z,26.67
2023-05-08T18:28:50.794Z,26.60
2023-05-08T18:31:17.169Z,25.70
2023-05-08T18:33:43.593Z,26.52
2023-05-08T18:36:10.103Z,25.65
2023-05-08T18:38:36.617Z,24.83
2023-05-08T18:41:06.301Z,23.83
2023-05-08T18:43:33.007Z,22.10
2023-05-08T18:46:00.596Z,22.23
2023-05-08T18:48:27.255Z,23.88
2023-05-08T18:50:55.783Z,23.08
2023-05-08T18:53:22.248Z,20.77
2023-05-08T18:55:48.626Z,20.70
2023-05-08T18:58:15.003Z,19.95
2023-05-08T19:00:41.528Z,21.95
2023-05-08T19:03:08.015Z,22.92
2023-05-08T19:05:34.567Z,22.25
2023-05-08T19:08:00.976Z,19.15
2023-05-08T19:10:27.551Z,22.42
2023-05-08T19:12:54.008Z,20.60
2023-05-08T19:15:20.534Z,21.65
2023-05-08T19:17:47.001Z,21.10
2023-05-08T19:20:13.855Z,19.35
2023-05-08T19:22:40.559Z,18.92
2023-05-08T19:25:07.224Z,18.75
2023-05-08T19:27:33.615Z,18.67
2023-05-08T19:30:00.068Z,20.10
2023-05-08T19:32:26.611Z,18.90
2023-05-08T19:34:53.531Z,19.30
2023-05-08T19:37:19.889Z,17.77
2023-05-08T19:39:46.248Z,18.15
2023-05-08T19:42:13.807Z,19.23
2023-05-08T19:44:40.270Z,18.63
2023-05-08T19:47:07.088Z,16.65
2023-05-08T19:49:33.426Z,18.02
2023-05-08T19:51:59.871Z,18.88
2023-05-08T19:54:26.235Z,17.20
2023-05-08T19:56:52.615Z,17.25
2023-05-08T19:59:18.965Z,18.77
2023-05-08T20:01:45.503Z,17.58
2023-05-08T20:04:12.057Z,19.05
2023-05-08T20:06:39.218Z,17.60
2023-05-08T20:09:06.260Z,18.40
2023-05-08T20:11:32.782Z,16.70
2023-05-08T20:13:59.264Z,16.90
2023-05-08T20:16:25.730Z,17.98
2023-05-08T20:18:55.165Z,17.00
2023-05-08T20:21:21.667Z,17.83
2023-05-08T20:23:48.309Z,17.92
2023-05-08T20:26:14.664Z,17.02
2023-05-08T20:28:41.076Z,16.67
2023-05-08T20:31:07.594Z,18.15
2023-05-08T20:33:34.037Z,16.20
2023-05-08T20:36:00.467Z,17.42
2023-05-08T20:38:26.865Z,17.48
2023-05-08T20:40:55.835Z,17.00
2023-05-08T20:45:51.458Z,15.75
2023-05-08T20:48:17.839Z,15.70
2023-05-08T20:50:44.243Z,15.95
2023-05-08T20:53:10.645Z,16.52
2023-05-08T20:55:37.053Z,15.35
2023-05-08T20:58:04.202Z,15.65
2023-05-08T21:00:30.798Z,16.83
2023-05-08T21:02:57.290Z,18.20
2023-05-08T21:05:23.740Z,15.45
2023-05-08T21:07:50.254Z,16.33
2023-05-08T21:10:17.243Z,15.68
2023-05-08T21:12:45.268Z,16.80
2023-05-08T21:15:11.733Z,15.38
2023-05-08T21:17:38.273Z,15.82
2023-05-08T21:20:05.155Z,14.75
2023-05-08T21:22:33.777Z,17.80
2023-05-08T21:25:00.211Z,16.02
2023-05-08T21:27:27.036Z,16.65
2023-05-08T21:29:53.483Z,17.05
2023-05-08T21:32:19.807Z,16.88
2023-05-08T21:34:46.162Z,17.13
2023-05-08T21:37:12.689Z,16.40
2023-05-08T21:39:39.080Z,17.63
2023-05-08T21:42:05.584Z,18.00
2023-05-08T21:44:31.977Z,17.98
2023-05-08T21:46:58.333Z,16.05
2023-05-08T21:49:24.758Z,17.63
2023-05-08T21:51:52.892Z,17.08
2023-05-08T21:54:22.279Z,16.25
2023-05-08T21:56:48.731Z,16.45
2023-05-08T21:59:15.603Z,16.25
2023-05-08T22:01:42.218Z,17.73
2023-05-08T22:04:08.633Z,16.55
2023-05-08T22:06:35.043Z,15.95
2023-05-08T22:09:01.850Z,17.70
2023-05-08T22:11:28.244Z,17.25
2023-05-08T22:13:54.677Z,17.05
2023-05-08T22:16:21.082Z,17.60
2023-05-08T22:18:47.452Z,16.98
2023-05-08T22:21:13.871Z,16.45
2023-05-08T22:23:40.249Z,17.77
2023-05-08T22:26:07.070Z,17.88
2023-05-08T22:28:33.474Z,17.23
2023-05-08T22:30:59.891Z,17.58
2023-05-08T22:33:26.292Z,17.25
2023-05-08T22:35:52.651Z,17.33
2023-05-08T22:38:19.068Z,17.02
2023-05-08T22:40:47.594Z,17.05
2023-05-08T22:43:14.300Z,17.75
2023-05-08T22:45:40.738Z,19.08
2023-05-08T22:48:07.356Z,17.15
2023-05-08T22:50:35.371Z,17.92
2023-05-08T22:53:07.713Z,16.67
2023-05-08T22:55:35.014Z,16.55
2023-05-08T22:58:01.809Z,16.48
2023-05-08T23:00:28.150Z,16.60
2023-05-08T23:02:55.086Z,16.30
2023-05-08T23:05:21.719Z,17.08
2023-05-08T23:07:48.048Z,19.17
2023-05-08T23:10:15.750Z,16.20
2023-05-08T23:12:42.899Z,16.95
2023-05-08T23:15:09.930Z,17.85
2023-05-08T23:17:36.354Z,17.33
2023-05-08T23:20:02.896Z,17.05
2023-05-08T23:22:29.266Z,16.13
2023-05-08T23:24:55.643Z,16.17
2023-05-08T23:27:22.059Z,16.40
2023-05-08T23:29:48.526Z,16.45
2023-05-08T23:32:15.276Z,15.65
2023-05-08T23:34:42.287Z,14.95
2023-05-08T23:37:08.959Z,16.77
2023-05-08T23:39:37.984Z,17.30
2023-05-08T23:42:04.425Z,16.10
2023-05-08T23:44:30.780Z,16.60
2023-05-08T23:46:57.149Z,15.35
2023-05-08T23:49:23.546Z,16.58
2023-05-08T23:51:49.930Z,16.38
2023-05-08T23:54:16.469Z,15.07
2023-05-08T23:56:43.097Z,16.25
2023-05-08T23:59:09.685Z,15.23
